Time;durP1;ratioP1;P1;durP2;ratioP2;P2;SDS_P1;SDS_P2;PMS_P1;PMS_P2;Temp;Humidity;BMP_temperature;BMP_pressure;BME280_temperature;BME280_humidity;BME280_pressure;Samples;Min_cycle;Max_cycle;Signal;HPM_P1;HPM_P2
2023/03/22 00:01:14;;;;;;;123.17;67.10;;;;;;;;;;6243649;28;20029;-84
2023/03/22 00:04:14;;;;;;;120.72;62.97;;;;;;;;;;6241186;28;20021;-83
2023/03/22 00:07:14;;;;;;;107.47;61.43;;;;;;;;;;6244130;28;20052;-84
2023/03/22 00:10:16;;;;;;;110.33;60.73;;;;;;;;;;6243443;28;20480;-83
2023/03/22 00:13:16;;;;;;;109.45;57.08;;;;;;;;;;6244828;28;20021;-82
2023/03/22 00:16:17;;;;;;;105.97;58.53;;;;;;;;;;6243323;28;20060;-82
2023/03/22 00:19:17;;;;;;;104.80;57.77;;;;;;;;;;6241678;28;20043;-82
2023/03/22 00:22:17;;;;;;;105.50;55.83;;;;;;;;;;6245014;28;20046;-83
2023/03/22 00:25:18;;;;;;;98.07;52.87;;;;;;;;;;6261385;28;20045;-84
2023/03/22 00:28:18;;;;;;;101.30;54.53;;;;;;;;;;6269741;28;20530;-84
2023/03/22 00:31:18;;;;;;;101.53;54.83;;;;;;;;;;6268160;28;20551;-83
2023/03/22 00:34:19;;;;;;;100.00;53.00;;;;;;;;;;6253131;28;20025;-83
2023/03/22 00:37:19;;;;;;;108.27;60.10;;;;;;;;;;6271976;28;20459;-83
2023/03/22 00:40:19;;;;;;;113.53;62.23;;;;;;;;;;6272333;28;20525;-84
2023/03/22 00:43:20;;;;;;;105.00;57.57;;;;;;;;;;6255699;28;20482;-84
2023/03/22 00:46:20;;;;;;;109.33;59.27;;;;;;;;;;6257541;28;20387;-84
2023/03/22 00:49:20;;;;;;;121.47;61.97;;;;;;;;;;6266447;28;20024;-83
2023/03/22 00:52:21;;;;;;;109.13;60.15;;;;;;;;;;6267256;28;20471;-84
2023/03/22 00:55:21;;;;;;;110.47;60.13;;;;;;;;;;6248537;28;20021;-83
2023/03/22 00:58:21;;;;;;;106.37;56.97;;;;;;;;;;6272394;28;20020;-84
2023/03/22 01:01:21;;;;;;;218.00;60.77;;;;;;;;;;6271952;28;20097;-83
2023/03/22 01:04:24;;;;;;;439.60;74.13;;;;;;;;;;6252652;28;20021;-85
2023/03/22 01:07:25;;;;;;;95.40;49.78;;;;;;;;;;6268043;28;20024;-84
2023/03/22 01:10:25;;;;;;;96.03;49.00;;;;;;;;;;6258016;28;20021;-84
2023/03/22 01:13:26;;;;;;;116.27;53.07;;;;;;;;;;6265624;28;20035;-84
2023/03/22 01:16:26;;;;;;;96.33;48.93;;;;;;;;;;6253051;28;20028;-84
2023/03/22 01:19:26;;;;;;;84.78;47.38;;;;;;;;;;6268884;28;20303;-83
2023/03/22 01:22:27;;;;;;;133.97;46.93;;;;;;;;;;6273170;28;20096;-83
2023/03/22 01:25:27;;;;;;;152.90;44.20;;;;;;;;;;6271336;28;20079;-83
2023/03/22 01:28:27;;;;;;;171.77;38.43;;;;;;;;;;6269296;28;20020;-83
2023/03/22 01:31:28;;;;;;;189.93;40.27;;;;;;;;;;6268871;28;20025;-83
2023/03/22 01:34:28;;;;;;;200.00;40.40;;;;;;;;;;6271478;28;20021;-84
2023/03/22 01:37:28;;;;;;;172.13;40.23;;;;;;;;;;6272055;28;20013;-84
2023/03/22 01:40:28;;;;;;;133.20;37.80;;;;;;;;;;6255485;28;20075;-85
2023/03/22 01:43:29;;;;;;;141.57;37.20;;;;;;;;;;6272254;28;20067;-84
2023/03/22 01:46:29;;;;;;;102.70;38.87;;;;;;;;;;6269680;28;20047;-85
2023/03/22 01:49:31;;;;;;;144.53;41.00;;;;;;;;;;6271530;28;20028;-85
2023/03/22 01:52:31;;;;;;;146.82;42.90;;;;;;;;;;6253277;28;20028;-84
2023/03/22 01:55:32;;;;;;;105.60;34.83;;;;;;;;;;6271217;28;20100;-84
2023/03/22 01:58:34;;;;;;;86.37;29.80;;;;;;;;;;6270321;28;20506;-84
2023/03/22 02:01:35;;;;;;;87.03;32.13;;;;;;;;;;6268813;28;20645;-84
2023/03/22 02:04:37;;;;;;;90.27;33.00;;;;;;;;;;6268705;28;20391;-85
2023/03/22 02:07:39;;;;;;;78.88;34.08;;;;;;;;;;6276324;28;20496;-87
2023/03/22 02:10:40;;;;;;;143.35;34.03;;;;;;;;;;6255473;28;20021;-85
2023/03/22 02:13:46;;;;;;;107.97;30.57;;;;;;;;;;6253338;28;20027;-84
2023/03/22 02:16:54;;;;;;;117.75;32.30;;;;;;;;;;6270234;28;20013;-85
2023/03/22 02:20:23;;;;;;;91.00;28.83;;;;;;;;;;6269802;28;20475;-86
2023/03/22 02:23:29;;;;;;;94.88;29.83;;;;;;;;;;6271061;28;20019;-85
2023/03/22 02:26:42;;;;;;;117.25;30.90;;;;;;;;;;6245359;28;20046;-85
2023/03/22 02:29:46;;;;;;;92.53;28.55;;;;;;;;;;6245225;28;20036;-85
2023/03/22 02:33:05;;;;;;;89.63;31.48;;;;;;;;;;6244940;28;20471;-84
2023/03/22 02:36:23;;;;;;;75.45;26.15;;;;;;;;;;6242297;28;20156;-80
2023/03/22 02:39:26;;;;;;;85.60;27.42;;;;;;;;;;6244583;28;20060;-86
2023/03/22 02:42:42;;;;;;;91.10;31.23;;;;;;;;;;6240592;28;20375;-85
2023/03/22 02:45:42;;;;;;;89.07;31.30;;;;;;;;;;6250782;28;20340;-85
2023/03/22 02:49:01;;;;;;;68.20;27.63;;;;;;;;;;6246810;28;20171;-86
2023/03/22 02:52:18;;;;;;;93.68;32.58;;;;;;;;;;6247817;28;20044;-85
2023/03/22 02:55:33;;;;;;;88.22;30.05;;;;;;;;;;6242492;28;20079;-85
2023/03/22 02:58:36;;;;;;;118.45;34.22;;;;;;;;;;6258145;28;20108;-84
2023/03/22 03:01:39;;;;;;;135.90;36.67;;;;;;;;;;6244853;28;20033;-84
2023/03/22 03:04:42;;;;;;;119.43;35.50;;;;;;;;;;6248680;28;20021;-84
2023/03/22 03:07:45;;;;;;;108.72;34.13;;;;;;;;;;6246073;28;20068;-84
2023/03/22 03:10:46;;;;;;;126.43;32.25;;;;;;;;;;6244550;28;20025;-85
2023/03/22 03:13:47;;;;;;;112.60;29.67;;;;;;;;;;6241482;28;20058;-84
2023/03/22 03:16:53;;;;;;;122.65;32.75;;;;;;;;;;6244620;28;20018;-83
2023/03/22 03:19:58;;;;;;;106.15;32.78;;;;;;;;;;6245313;28;20029;-84
2023/03/22 03:22:59;;;;;;;127.97;38.97;;;;;;;;;;6238943;28;20018;-85
2023/03/22 03:26:12;;;;;;;203.23;52.15;;;;;;;;;;6264422;28;20052;-85
2023/03/22 03:29:31;;;;;;;144.30;41.05;;;;;;;;;;6250206;28;20020;-84
2023/03/22 03:32:37;;;;;;;170.60;40.40;;;;;;;;;;6242835;28;20122;-85
2023/03/22 03:35:39;;;;;;;150.73;39.30;;;;;;;;;;6250567;28;20021;-84
2023/03/22 03:38:42;;;;;;;158.98;37.45;;;;;;;;;;6249081;28;20067;-85
2023/03/22 03:41:44;;;;;;;150.23;36.70;;;;;;;;;;6256600;28;20118;-85
2023/03/22 03:44:45;;;;;;;130.32;33.28;;;;;;;;;;6274821;28;20025;-86
2023/03/22 03:47:45;;;;;;;128.30;29.80;;;;;;;;;;6272564;28;20541;-85
2023/03/22 03:50:49;;;;;;;125.10;30.93;;;;;;;;;;6271078;28;20021;-85
2023/03/22 03:53:49;;;;;;;100.63;29.05;;;;;;;;;;6255055;28;20569;-81
2023/03/22 03:56:49;;;;;;;79.63;23.23;;;;;;;;;;6256152;28;20063;-84
2023/03/22 03:59:49;;;;;;;126.37;37.17;;;;;;;;;;6265913;28;20074;-86
2023/03/22 04:02:50;;;;;;;141.23;36.35;;;;;;;;;;6268298;28;20031;-86
2023/03/22 04:05:50;;;;;;;102.10;29.17;;;;;;;;;;6270703;28;20021;-85
2023/03/22 04:08:52;;;;;;;110.43;38.57;;;;;;;;;;6271211;28;20013;-86
2023/03/22 04:11:53;;;;;;;122.13;32.90;;;;;;;;;;6270174;28;20044;-86
2023/03/22 04:14:54;;;;;;;108.80;33.63;;;;;;;;;;6265453;28;20025;-85
2023/03/22 04:17:55;;;;;;;105.68;32.58;;;;;;;;;;6273950;28;20025;-85
2023/03/22 04:20:56;;;;;;;106.80;31.93;;;;;;;;;;6274532;28;20096;-86
2023/03/22 04:23:56;;;;;;;74.97;24.93;;;;;;;;;;6256618;28;20050;-86
2023/03/22 04:26:56;;;;;;;69.53;23.70;;;;;;;;;;6276827;28;20021;-84
2023/03/22 04:29:56;;;;;;;123.20;35.77;;;;;;;;;;6266151;28;20467;-85
2023/03/22 04:32:57;;;;;;;112.70;39.63;;;;;;;;;;6274812;28;20094;-84
2023/03/22 04:35:58;;;;;;;108.07;39.97;;;;;;;;;;6255321;28;20558;-84
2023/03/22 04:38:58;;;;;;;138.60;42.33;;;;;;;;;;6251574;28;20127;-85
2023/03/22 04:41:58;;;;;;;117.72;38.08;;;;;;;;;;6269808;28;20031;-86
2023/03/22 04:44:59;;;;;;;127.53;37.25;;;;;;;;;;6255385;28;20044;-85
2023/03/22 04:47:59;;;;;;;84.63;34.20;;;;;;;;;;6272117;28;20033;-85
2023/03/22 04:51:02;;;;;;;83.70;32.57;;;;;;;;;;6272376;28;20430;-84
2023/03/22 04:54:03;;;;;;;86.07;31.08;;;;;;;;;;6260862;28;20092;-86
2023/03/22 04:57:03;;;;;;;65.57;32.53;;;;;;;;;;6270288;28;20027;-85
2023/03/22 05:00:07;;;;;;;58.27;28.77;;;;;;;;;;6271707;28;20048;-85
2023/03/22 05:03:08;;;;;;;65.63;31.85;;;;;;;;;;6275155;28;20020;-84
2023/03/22 05:06:08;;;;;;;67.32;32.53;;;;;;;;;;6274869;28;20024;-85
2023/03/22 05:09:09;;;;;;;65.33;31.37;;;;;;;;;;6274083;28;20056;-85
2023/03/22 05:12:09;;;;;;;50.97;28.30;;;;;;;;;;6265966;28;20025;-84
2023/03/22 05:15:10;;;;;;;59.33;32.30;;;;;;;;;;6270137;28;20100;-84
2023/03/22 05:18:13;;;;;;;67.30;33.90;;;;;;;;;;6265537;28;20020;-83
2023/03/22 05:21:15;;;;;;;67.30;33.05;;;;;;;;;;6268675;28;20134;-83
2023/03/22 05:24:15;;;;;;;;;;;;;;;;;;6270245;28;20041;-83
2023/03/22 05:27:15;;;;;;;67.30;35.08;;;;;;;;;;6267235;28;20318;-84
2023/03/22 05:30:15;;;;;;;82.17;36.00;;;;;;;;;;6255102;28;20032;-83
2023/03/22 05:33:20;;;;;;;73.73;37.00;;;;;;;;;;6265771;28;20029;-83
2023/03/22 05:36:21;;;;;;;86.20;40.42;;;;;;;;;;6253021;28;20029;-83
2023/03/22 05:39:22;;;;;;;83.22;42.22;;;;;;;;;;6273505;28;20063;-83
2023/03/22 05:42:22;;;;;;;78.13;40.50;;;;;;;;;;6269094;28;20028;-84
2023/03/22 05:45:23;;;;;;;72.68;39.53;;;;;;;;;;6270851;28;20029;-82
2023/03/22 05:48:23;;;;;;;83.63;41.23;;;;;;;;;;6267983;28;20082;-83
2023/03/22 05:51:24;;;;;;;79.70;39.70;;;;;;;;;;6271332;28;20025;-83
2023/03/22 05:54:25;;;;;;;75.88;41.38;;;;;;;;;;6271968;28;20017;-84
2023/03/22 05:57:26;;;;;;;86.70;41.70;;;;;;;;;;6270091;28;20044;-83
2023/03/22 06:00:27;;;;;;;77.40;39.63;;;;;;;;;;6252135;28;20021;-82
2023/03/22 06:03:27;;;;;;;70.60;36.83;;;;;;;;;;6270762;28;20487;-82
2023/03/22 06:06:27;;;;;;;66.60;34.60;;;;;;;;;;6266671;28;20028;-82
2023/03/22 06:09:28;;;;;;;69.63;36.20;;;;;;;;;;6269146;28;20082;-82
2023/03/22 06:12:28;;;;;;;51.40;26.67;;;;;;;;;;6266745;28;20013;-83
2023/03/22 06:15:28;;;;;;;68.20;34.20;;;;;;;;;;6252606;28;20029;-83
2023/03/22 06:18:29;;;;;;;70.37;38.03;;;;;;;;;;6270559;28;20450;-82
2023/03/22 06:21:29;;;;;;;72.90;38.42;;;;;;;;;;6248037;28;20028;-83
2023/03/22 06:24:30;;;;;;;69.93;36.13;;;;;;;;;;6256353;28;20503;-82
2023/03/22 06:27:30;;;;;;;68.13;38.13;;;;;;;;;;6251811;28;20025;-83
2023/03/22 06:30:30;;;;;;;74.17;38.10;;;;;;;;;;6261702;28;20094;-83
2023/03/22 06:33:32;;;;;;;72.30;38.70;;;;;;;;;;6242081;28;20021;-82
2023/03/22 06:36:32;;;;;;;73.25;39.08;;;;;;;;;;6247733;28;20017;-83
2023/03/22 06:39:32;;;;;;;74.33;37.50;;;;;;;;;;6266301;28;20028;-83
2023/03/22 06:42:33;;;;;;;79.97;44.97;;;;;;;;;;6249903;28;20013;-84
2023/03/22 06:45:34;;;;;;;72.20;40.87;;;;;;;;;;6249937;28;20009;-83
2023/03/22 06:48:35;;;;;;;65.60;36.42;;;;;;;;;;6265967;28;20429;-84
2023/03/22 06:51:35;;;;;;;67.60;36.80;;;;;;;;;;6271352;28;20028;-83
2023/03/22 06:54:35;;;;;;;73.03;36.63;;;;;;;;;;6269829;28;20490;-83
2023/03/22 06:57:35;;;;;;;62.63;36.87;;;;;;;;;;6261293;28;20591;-84
2023/03/22 07:00:37;;;;;;;66.27;39.03;;;;;;;;;;6263749;28;20016;-83
2023/03/22 07:03:37;;;;;;;66.88;38.20;;;;;;;;;;6246696;28;20025;-81
2023/03/22 07:06:37;;;;;;;64.40;35.97;;;;;;;;;;6261521;28;20021;-81
2023/03/22 07:09:38;;;;;;;56.60;32.87;;;;;;;;;;6263111;28;20419;-82
2023/03/22 07:12:38;;;;;;;63.93;34.37;;;;;;;;;;6265784;28;20017;-81
2023/03/22 07:15:39;;;;;;;56.90;33.70;;;;;;;;;;6264174;28;20021;-82
2023/03/22 07:18:39;;;;;;;65.07;36.77;;;;;;;;;;6261058;28;20548;-82
2023/03/22 07:21:39;;;;;;;55.70;32.40;;;;;;;;;;6266101;28;20025;-82
2023/03/22 07:24:40;;;;;;;58.10;33.20;;;;;;;;;;6268017;28;20040;-82
2023/03/22 07:27:40;;;;;;;52.77;30.63;;;;;;;;;;6262301;28;20040;-81
2023/03/22 07:30:40;;;;;;;52.43;33.40;;;;;;;;;;6265269;28;20018;-82
2023/03/22 07:33:41;;;;;;;57.43;33.00;;;;;;;;;;6262494;28;20059;-81
2023/03/22 07:36:41;;;;;;;55.83;32.97;;;;;;;;;;6261762;28;20013;-81
2023/03/22 07:39:41;;;;;;;114.23;48.57;;;;;;;;;;6264208;28;20025;-82
2023/03/22 07:42:41;;;;;;;56.23;32.37;;;;;;;;;;6266504;28;20017;-82
2023/03/22 07:45:41;;;;;;;57.30;33.37;;;;;;;;;;6266077;28;20445;-79
2023/03/22 07:48:42;;;;;;;58.03;31.93;;;;;;;;;;6262828;28;20017;-81
2023/03/22 07:51:43;;;;;;;48.67;29.90;;;;;;;;;;6269362;28;20009;-80
2023/03/22 07:54:43;;;;;;;55.17;30.03;;;;;;;;;;6264115;28;20031;-80
2023/03/22 07:57:45;;;;;;;49.33;28.00;;;;;;;;;;6245210;28;20441;-80
2023/03/22 08:00:48;;;;;;;55.35;31.13;;;;;;;;;;6260457;28;20025;-80
2023/03/22 08:03:48;;;;;;;53.22;29.60;;;;;;;;;;6267432;28;20516;-81
2023/03/22 08:06:48;;;;;;;57.30;31.70;;;;;;;;;;6245346;28;20028;-80
2023/03/22 08:09:49;;;;;;;72.07;37.97;;;;;;;;;;6256397;28;20021;-80
2023/03/22 08:12:49;;;;;;;57.90;32.00;;;;;;;;;;6259761;28;20028;-79
2023/03/22 08:15:49;;;;;;;63.60;33.40;;;;;;;;;;6245061;28;20025;-79
2023/03/22 08:18:50;;;;;;;57.60;30.67;;;;;;;;;;6267994;28;20074;-79
2023/03/22 08:21:50;;;;;;;66.43;35.23;;;;;;;;;;6268414;28;20412;-80
2023/03/22 08:24:50;;;;;;;50.97;30.17;;;;;;;;;;6268435;28;20056;-79
2023/03/22 08:27:51;;;;;;;51.03;29.03;;;;;;;;;;6264242;28;20021;-79
2023/03/22 08:30:51;;;;;;;50.13;27.63;;;;;;;;;;6262522;28;20025;-79
2023/03/22 08:33:51;;;;;;;50.93;29.70;;;;;;;;;;6262956;28;20476;-79
2023/03/22 08:36:52;;;;;;;46.50;27.17;;;;;;;;;;6260241;28;20028;-79
2023/03/22 08:39:52;;;;;;;43.63;27.47;;;;;;;;;;6266759;28;20040;-79
2023/03/22 08:42:52;;;;;;;44.13;26.63;;;;;;;;;;6259713;28;20018;-79
2023/03/22 08:45:53;;;;;;;48.23;29.57;;;;;;;;;;6260009;28;20021;-79
2023/03/22 08:48:53;;;;;;;50.47;29.63;;;;;;;;;;6240540;28;20052;-79
2023/03/22 08:51:53;;;;;;;45.83;26.42;;;;;;;;;;6269812;28;20040;-80
2023/03/22 08:54:54;;;;;;;39.03;24.70;;;;;;;;;;6264915;28;20035;-79
2023/03/22 08:57:57;;;;;;;56.20;32.80;;;;;;;;;;6269222;28;20017;-79
2023/03/22 09:00:58;;;;;;;50.33;28.30;;;;;;;;;;6265809;28;20021;-78
2023/03/22 09:03:58;;;;;;;48.57;25.40;;;;;;;;;;6261611;28;20388;-79
2023/03/22 09:06:58;;;;;;;49.63;27.90;;;;;;;;;;6264510;28;20386;-78
2023/03/22 09:09:58;;;;;;;48.72;27.63;;;;;;;;;;6267065;28;20369;-79
2023/03/22 09:12:59;;;;;;;36.10;22.53;;;;;;;;;;6266930;28;20013;-79
2023/03/22 09:15:59;;;;;;;39.60;23.77;;;;;;;;;;6262291;28;20024;-80
2023/03/22 09:19:00;;;;;;;41.33;26.13;;;;;;;;;;6259930;28;20054;-79
2023/03/22 09:22:00;;;;;;;47.87;25.90;;;;;;;;;;6265834;28;20017;-78
2023/03/22 09:25:01;;;;;;;70.03;37.30;;;;;;;;;;6271768;28;20446;-78
2023/03/22 09:28:01;;;;;;;58.30;30.27;;;;;;;;;;6265757;28;20024;-80
2023/03/22 09:31:02;;;;;;;37.73;22.33;;;;;;;;;;6267918;28;20100;-74
2023/03/22 09:34:02;;;;;;;30.77;20.15;;;;;;;;;;6270816;28;20499;-73
2023/03/22 09:37:03;;;;;;;32.33;18.70;;;;;;;;;;6266856;28;20452;-74
2023/03/22 09:40:04;;;;;;;36.13;18.30;;;;;;;;;;6265839;28;20125;-74
2023/03/22 09:43:05;;;;;;;;;;;;;;;;;;6266585;28;20028;-74
2023/03/22 09:46:07;;;;;;;29.85;17.27;;;;;;;;;;6269152;28;20279;-74
2023/03/22 09:49:13;;;;;;;29.25;17.30;;;;;;;;;;6270607;28;20033;-74
2023/03/22 09:52:14;;;;;;;25.02;15.80;;;;;;;;;;6273358;28;20071;-74
2023/03/22 09:55:14;;;;;;;;;;;;;;;;;;6251973;28;20013;-74
2023/03/22 09:58:34;;;;;;;23.45;15.35;;;;;;;;;;6270668;28;20030;-74
2023/03/22 10:01:56;;;;;;;26.30;15.40;;;;;;;;;;6248695;28;20070;-74
2023/03/22 10:05:22;;;;;;;25.80;16.52;;;;;;;;;;6263046;28;20471;-73
2023/03/22 10:08:25;;;;;;;29.92;17.02;;;;;;;;;;6222583;28;20116;-73
2023/03/22 10:11:26;;;;;;;20.95;12.90;;;;;;;;;;6261683;28;20079;-74
2023/03/22 10:14:32;;;;;;;26.03;13.97;;;;;;;;;;6266956;28;20043;-73
2023/03/22 10:17:35;;;;;;;26.58;16.80;;;;;;;;;;6260096;28;20740;-73
2023/03/22 10:20:47;;;;;;;34.50;19.70;;;;;;;;;;6263632;28;20052;-73
2023/03/22 10:23:53;;;;;;;28.92;18.33;;;;;;;;;;6259439;28;20024;-73
2023/03/22 10:26:53;;;;;;;28.10;16.80;;;;;;;;;;6263131;28;20473;-73
2023/03/22 10:30:06;;;;;;;28.23;17.80;;;;;;;;;;6251800;28;20021;-73
2023/03/22 10:33:12;;;;;;;23.92;16.35;;;;;;;;;;6248125;28;20021;-73
2023/03/22 10:36:13;;;;;;;27.73;17.08;;;;;;;;;;6246946;28;20064;-73
2023/03/22 10:39:23;;;;;;;25.30;18.08;;;;;;;;;;6266888;28;20425;-73
2023/03/22 10:42:24;;;;;;;27.40;17.27;;;;;;;;;;6271238;28;20029;-73
2023/03/22 10:45:25;;;;;;;27.42;17.75;;;;;;;;;;6262803;28;20471;-73
2023/03/22 10:48:36;;;;;;;29.63;18.57;;;;;;;;;;6262419;28;20025;-73
2023/03/22 10:51:42;;;;;;;31.23;18.17;;;;;;;;;;6257313;28;20029;-73
2023/03/22 10:54:42;;;;;;;27.52;19.08;;;;;;;;;;6262527;28;20078;-73
2023/03/22 10:57:50;;;;;;;28.80;19.17;;;;;;;;;;6250834;28;20539;-73
2023/03/22 11:00:52;;;;;;;25.13;18.10;;;;;;;;;;6247310;28;20040;-74
2023/03/22 11:04:19;;;;;;;28.80;17.80;;;;;;;;;;6262976;28;20021;-73
2023/03/22 11:07:45;;;;;;;29.80;17.83;;;;;;;;;;6254880;28;20044;-74
2023/03/22 11:10:49;;;;;;;30.98;18.90;;;;;;;;;;6242134;28;20036;-73
2023/03/22 11:13:52;;;;;;;27.08;19.00;;;;;;;;;;6263430;28;20029;-74
2023/03/22 11:16:52;;;;;;;26.88;17.30;;;;;;;;;;6254656;28;20037;-74
2023/03/22 11:19:56;;;;;;;26.47;17.80;;;;;;;;;;6264890;28;20453;-73
2023/03/22 11:22:59;;;;;;;27.70;18.88;;;;;;;;;;6257929;28;20104;-73
2023/03/22 11:26:05;;;;;;;21.73;15.80;;;;;;;;;;6262442;28;20037;-73
2023/03/22 11:29:15;;;;;;;39.60;24.73;;;;;;;;;;6268033;28;20029;-72
2023/03/22 11:32:35;;;;;;;23.73;15.98;;;;;;;;;;6260369;28;20066;-73
2023/03/22 11:35:36;;;;;;;26.95;17.45;;;;;;;;;;6261064;28;20059;-73
2023/03/22 11:38:39;;;;;;;29.77;17.15;;;;;;;;;;6263434;28;20056;-73
2023/03/22 11:41:39;;;;;;;26.83;17.30;;;;;;;;;;6264762;28;20032;-73
2023/03/22 11:44:39;;;;;;;22.77;16.43;;;;;;;;;;6266344;28;20407;-73
2023/03/22 11:47:40;;;;;;;26.30;17.63;;;;;;;;;;6261450;28;20064;-73
2023/03/22 11:50:41;;;;;;;23.27;13.97;;;;;;;;;;6253978;28;20056;-72
2023/03/22 11:53:42;;;;;;;27.73;14.43;;;;;;;;;;6256479;28;20029;-73
2023/03/22 11:56:45;;;;;;;21.23;13.25;;;;;;;;;;6257499;28;20033;-73
2023/03/22 11:59:45;;;;;;;22.23;13.88;;;;;;;;;;6258917;28;20029;-73
2023/03/22 12:02:49;;;;;;;18.40;11.20;;;;;;;;;;6264524;28;20055;-72
2023/03/22 12:05:50;;;;;;;16.63;10.50;;;;;;;;;;6256977;28;20040;-73
2023/03/22 12:08:53;;;;;;;17.58;10.35;;;;;;;;;;6256214;28;20025;-73
2023/03/22 12:11:57;;;;;;;19.23;9.23;;;;;;;;;;6246551;28;20029;-73
2023/03/22 12:15:04;;;;;;;16.27;8.63;;;;;;;;;;6263214;28;20036;-73
2023/03/22 12:18:07;;;;;;;12.15;7.63;;;;;;;;;;6263049;28;20018;-72
2023/03/22 12:21:08;;;;;;;13.43;7.25;;;;;;;;;;6261794;28;20025;-73
2023/03/22 12:24:24;;;;;;;13.43;7.80;;;;;;;;;;6258144;28;20049;-73
2023/03/22 12:27:27;;;;;;;14.07;7.55;;;;;;;;;;6262129;28;20082;-73
2023/03/22 12:30:30;;;;;;;12.27;6.88;;;;;;;;;;6268450;28;20384;-73
2023/03/22 12:33:43;;;;;;;15.48;8.05;;;;;;;;;;6267779;28;20017;-73
2023/03/22 12:36:49;;;;;;;13.38;7.53;;;;;;;;;;6270910;28;20047;-72
2023/03/22 12:39:55;;;;;;;13.77;7.90;;;;;;;;;;6271179;28;20020;-73
2023/03/22 12:43:10;;;;;;;12.88;6.97;;;;;;;;;;6271326;28;20051;-73
2023/03/22 12:46:17;;;;;;;8.95;4.60;;;;;;;;;;6265669;28;20024;-72
2023/03/22 12:49:36;;;;;;;12.77;6.18;;;;;;;;;;6262424;28;20032;-73
2023/03/22 12:52:50;;;;;;;11.00;5.78;;;;;;;;;;6265876;28;20045;-73
2023/03/22 12:55:50;;;;;;;9.85;5.65;;;;;;;;;;6262946;28;20020;-73
2023/03/22 12:59:02;;;;;;;10.50;5.13;;;;;;;;;;6264062;28;20044;-73
2023/03/22 13:02:05;;;;;;;10.57;4.95;;;;;;;;;;6250873;28;20017;-73
2023/03/22 13:05:08;;;;;;;6.57;3.90;;;;;;;;;;6251629;28;20368;-73
2023/03/22 13:08:09;;;;;;;10.15;4.60;;;;;;;;;;6268385;28;20025;-73
2023/03/22 13:11:20;;;;;;;8.02;4.65;;;;;;;;;;6267452;28;20016;-73
2023/03/22 13:14:39;;;;;;;8.60;4.18;;;;;;;;;;6267038;28;20394;-71
2023/03/22 13:17:42;;;;;;;8.65;4.07;;;;;;;;;;6267059;28;20024;-73
2023/03/22 13:20:42;;;;;;;7.35;3.88;;;;;;;;;;6266738;28;20017;-73
2023/03/22 13:24:06;;;;;;;6.97;4.53;;;;;;;;;;6269279;28;20532;-72
2023/03/22 13:27:08;;;;;;;6.10;3.30;;;;;;;;;;6258061;28;20049;-73
2023/03/22 13:30:09;;;;;;;;;;;;;;;;;;6270045;28;20459;-73
2023/03/22 13:33:09;;;;;;;10.27;4.38;;;;;;;;;;6262338;28;19904;-73
2023/03/22 13:36:25;;;;;;;9.23;5.63;;;;;;;;;;6245040;28;20025;-73
2023/03/22 13:39:30;;;;;;;10.38;4.82;;;;;;;;;;6267935;28;20386;-73
2023/03/22 13:42:48;;;;;;;9.18;5.05;;;;;;;;;;6258974;28;20140;-72
2023/03/22 13:46:07;;;;;;;8.75;4.68;;;;;;;;;;6260368;28;20471;-72
2023/03/22 13:49:27;;;;;;;6.82;3.30;;;;;;;;;;6258739;28;20029;-73
2023/03/22 13:52:33;;;;;;;6.25;3.47;;;;;;;;;;6260964;28;20355;-73
2023/03/22 13:55:45;;;;;;;9.27;4.28;;;;;;;;;;6259656;28;20102;-74
2023/03/22 13:58:45;;;;;;;8.70;4.95;;;;;;;;;;6264060;28;20021;-74
2023/03/22 14:01:48;;;;;;;9.02;3.80;;;;;;;;;;6268899;28;20021;-74
2023/03/22 14:04:51;;;;;;;6.25;3.75;;;;;;;;;;6264600;28;20040;-74
2023/03/22 14:07:58;;;;;;;9.90;4.93;;;;;;;;;;6246965;28;20025;-73
2023/03/22 14:11:05;;;;;;;7.35;4.82;;;;;;;;;;6264348;28;20033;-74
2023/03/22 14:14:09;;;;;;;7.43;3.70;;;;;;;;;;6245162;28;20043;-74
2023/03/22 14:17:15;;;;;;;8.98;4.10;;;;;;;;;;6254513;28;20023;-73
2023/03/22 14:20:18;;;;;;;10.00;4.22;;;;;;;;;;6267987;28;20021;-74
2023/03/22 14:23:21;;;;;;;11.27;5.13;;;;;;;;;;6260931;28;20013;-73
2023/03/22 14:26:27;;;;;;;9.93;4.97;;;;;;;;;;6261399;28;20045;-74
2023/03/22 14:29:46;;;;;;;11.10;5.22;;;;;;;;;;6248712;28;20021;-74
2023/03/22 14:32:48;;;;;;;8.80;4.78;;;;;;;;;;6262640;28;20020;-73
2023/03/22 14:36:00;;;;;;;9.90;5.30;;;;;;;;;;6264553;28;20100;-74
2023/03/22 14:39:11;;;;;;;9.45;4.88;;;;;;;;;;6255744;28;20017;-74
2023/03/22 14:42:15;;;;;;;9.13;4.15;;;;;;;;;;6263295;28;20475;-74
2023/03/22 14:45:16;;;;;;;10.48;4.38;;;;;;;;;;6256150;28;20075;-73
2023/03/22 14:48:22;;;;;;;10.50;4.78;;;;;;;;;;6265155;28;20089;-73
2023/03/22 14:51:29;;;;;;;7.50;3.95;;;;;;;;;;6258536;28;20507;-73
2023/03/22 14:54:30;;;;;;;7.28;4.28;;;;;;;;;;6247677;28;20075;-73
2023/03/22 14:57:43;;;;;;;6.40;4.10;;;;;;;;;;6266376;28;20017;-73
2023/03/22 15:00:43;;;;;;;9.55;4.45;;;;;;;;;;6257451;28;20017;-74
2023/03/22 15:03:48;;;;;;;10.20;4.97;;;;;;;;;;6263148;28;20450;-74
2023/03/22 15:06:58;;;;;;;11.48;4.78;;;;;;;;;;6257141;28;20498;-75
2023/03/22 15:10:12;;;;;;;9.40;5.00;;;;;;;;;;6268076;28;20021;-74
2023/03/22 15:13:13;;;;;;;6.60;4.13;;;;;;;;;;6250595;28;20485;-74
2023/03/22 15:16:18;;;;;;;11.23;6.53;;;;;;;;;;6268537;28;20093;-74
2023/03/22 15:19:20;;;;;;;11.35;4.65;;;;;;;;;;6268512;28;20020;-74
2023/03/22 15:22:20;;;;;;;9.57;4.30;;;;;;;;;;6256764;28;20099;-74
2023/03/22 15:25:29;;;;;;;8.93;4.70;;;;;;;;;;6266115;28;20422;-74
2023/03/22 15:28:30;;;;;;;11.15;6.28;;;;;;;;;;6268660;28;20128;-75
2023/03/22 15:31:31;;;;;;;11.98;7.25;;;;;;;;;;6265374;28;20021;-73
2023/03/22 15:34:32;;;;;;;11.40;5.90;;;;;;;;;;6262649;28;20029;-73
2023/03/22 15:37:33;;;;;;;9.60;4.40;;;;;;;;;;6268105;28;20552;-73
2023/03/22 15:40:41;;;;;;;12.50;4.25;;;;;;;;;;6265275;28;20045;-74
2023/03/22 15:43:41;;;;;;;11.68;5.28;;;;;;;;;;6258998;28;20017;-74
2023/03/22 15:46:54;;;;;;;10.53;5.30;;;;;;;;;;6262324;28;20498;-75
2023/03/22 15:49:55;;;;;;;12.43;6.05;;;;;;;;;;6256438;28;20056;-72
2023/03/22 15:52:57;;;;;;;10.05;4.93;;;;;;;;;;6260684;28;20029;-73
2023/03/22 15:55:57;;;;;;;;;;;;;;;;;;6265815;28;20017;-72
2023/03/22 15:58:58;;;;;;;13.93;6.78;;;;;;;;;;6265916;28;19948;-74
2023/03/22 16:01:59;;;;;;;12.32;6.13;;;;;;;;;;6263225;28;20491;-72
2023/03/22 16:05:00;;;;;;;10.02;4.75;;;;;;;;;;6269937;28;20447;-74
2023/03/22 16:08:01;;;;;;;9.83;4.90;;;;;;;;;;6257556;28;20024;-74
2023/03/22 16:11:04;;;;;;;10.02;4.50;;;;;;;;;;6272196;28;20070;-75
2023/03/22 16:14:07;;;;;;;11.80;4.90;;;;;;;;;;6268037;28;20035;-74
2023/03/22 16:17:34;;;;;;;7.88;3.83;;;;;;;;;;6267301;28;20021;-74
2023/03/22 16:20:35;;;;;;;4.82;3.22;;;;;;;;;;6252565;28;20028;-73
2023/03/22 16:23:35;;;;;;;9.20;4.23;;;;;;;;;;6273676;28;20438;-74
2023/03/22 16:26:35;;;;;;;7.00;3.72;;;;;;;;;;6255342;28;20135;-74
2023/03/22 16:29:35;;;;;;;8.53;4.43;;;;;;;;;;6275136;28;20107;-74
2023/03/22 16:32:36;;;;;;;7.90;3.87;;;;;;;;;;6272649;28;20023;-74
2023/03/22 16:35:37;;;;;;;11.07;4.75;;;;;;;;;;6272554;28;20021;-73
2023/03/22 16:38:38;;;;;;;10.63;5.20;;;;;;;;;;6270246;28;20154;-74
2023/03/22 16:41:39;;;;;;;9.97;4.77;;;;;;;;;;6271358;28;20013;-74
2023/03/22 16:44:39;;;;;;;11.90;5.43;;;;;;;;;;6248827;28;20021;-75
2023/03/22 16:47:40;;;;;;;13.00;6.93;;;;;;;;;;6272567;28;20029;-74
2023/03/22 16:50:41;;;;;;;16.40;7.30;;;;;;;;;;6270243;28;20574;-73
2023/03/22 16:53:42;;;;;;;11.50;6.95;;;;;;;;;;6253247;28;20025;-74
2023/03/22 16:56:42;;;;;;;17.80;7.90;;;;;;;;;;6253818;28;20025;-74
2023/03/22 16:59:42;;;;;;;11.33;6.07;;;;;;;;;;6270773;28;20102;-74
2023/03/22 17:02:43;;;;;;;15.37;7.17;;;;;;;;;;6271170;28;20490;-73
2023/03/22 17:05:43;;;;;;;14.13;6.50;;;;;;;;;;6271818;28;20013;-74
2023/03/22 17:08:43;;;;;;;16.83;7.23;;;;;;;;;;6261189;28;20475;-73
2023/03/22 17:11:43;;;;;;;13.43;6.83;;;;;;;;;;6267827;28;20387;-73
2023/03/22 17:14:44;;;;;;;17.37;6.90;;;;;;;;;;6268129;28;20017;-73
2023/03/22 17:17:44;;;;;;;12.57;6.27;;;;;;;;;;6268463;28;20391;-74
2023/03/22 17:20:45;;;;;;;17.23;8.23;;;;;;;;;;6267937;28;20505;-74
2023/03/22 17:23:46;;;;;;;14.13;7.83;;;;;;;;;;6268755;28;20021;-73
2023/03/22 17:26:46;;;;;;;13.07;8.35;;;;;;;;;;6269724;28;20061;-75
2023/03/22 17:29:47;;;;;;;20.17;10.40;;;;;;;;;;6264481;28;20025;-74
2023/03/22 17:32:47;;;;;;;17.30;8.32;;;;;;;;;;6248975;28;20017;-75
2023/03/22 17:35:48;;;;;;;45.53;31.07;;;;;;;;;;6263541;28;20471;-74
2023/03/22 17:38:48;;;;;;;15.37;9.33;;;;;;;;;;6268536;28;20013;-75
2023/03/22 17:41:48;;;;;;;19.80;9.50;;;;;;;;;;6265093;28;20036;-75
2023/03/22 17:44:49;;;;;;;15.37;10.60;;;;;;;;;;6268475;28;20017;-74
2023/03/22 17:47:49;;;;;;;17.90;9.23;;;;;;;;;;6271547;28;20032;-75
2023/03/22 17:50:50;;;;;;;20.03;11.93;;;;;;;;;;6261827;28;20073;-73